Time;durP1;ratioP1;P1;durP2;ratioP2;P2;SDS_P1;SDS_P2;PMS_P1;PMS_P2;Temp;Humidity;BMP_temperature;BMP_pressure;BME280_temperature;BME280_humidity;BME280_pressure;Samples;Min_cycle;Max_cycle;Signal;HPM_P1;HPM_P2
2021/01/26 05:01:39;;;;;;;;;;;1.80;99.90;;;;;;5543827;22;20374;-61
2021/01/26 05:04:07;;;;;;;;;;;1.80;99.90;;;;;;5038132;28;19927;-61
2021/01/26 05:06:35;;;;;;;;;;;1.80;99.90;;;;;;5038222;28;19932;-61
2021/01/26 05:09:03;;;;;;;;;;;1.90;99.90;;;;;;5038001;28;19920;-61
2021/01/26 05:11:31;;;;;;;;;;;1.90;99.90;;;;;;5037780;28;20384;-62
2021/01/26 05:13:58;;;;;;;;;;;1.90;99.90;;;;;;5037939;28;19921;-62
2021/01/26 05:16:27;;;;;;;;;;;1.80;99.90;;;;;;5037560;28;20012;-62
2021/01/26 05:18:56;;;;;;;;;;;1.80;99.90;;;;;;5037837;28;19921;-62
2021/01/26 05:21:24;;;;;;;;;;;1.70;99.90;;;;;;5038282;28;19921;-61
2021/01/26 05:23:54;;;;;;;;;;;1.80;99.90;;;;;;5038409;28;19951;-62
2021/01/26 05:26:20;;;;;;;;;;;1.80;99.90;;;;;;5037873;28;19921;-62
2021/01/26 05:28:47;;;;;;;;;;;1.70;99.90;;;;;;5037958;28;19928;-61
2021/01/26 05:31:25;;;;;;;;;;;1.80;99.90;;;;;;5038178;28;19928;-62
2021/01/26 05:33:52;;;;;;;;;;;1.80;99.90;;;;;;5038158;28;19928;-63
2021/01/26 05:36:19;;;;;;;;;;;1.80;99.90;;;;;;5037712;28;20265;-61
2021/01/26 05:38:45;;;;;;;;;;;1.90;99.90;;;;;;5037723;28;19943;-61
2021/01/26 05:41:12;;;;;;;;;;;1.90;99.90;;;;;;5036925;28;19921;-60
2021/01/26 05:43:38;;;;;;;;;;;1.90;99.90;;;;;;5037383;28;19982;-61
2021/01/26 05:46:06;;;;;;;;;;;2.00;99.90;;;;;;5037537;28;19921;-61
2021/01/26 05:48:45;;;;;;;;;;;2.00;99.90;;;;;;5037602;28;19928;-62
2021/01/26 05:51:16;;;;;;;;;;;1.90;99.90;;;;;;5037579;28;20315;-61
2021/01/26 05:53:43;;;;;;;;;;;1.90;99.90;;;;;;5037699;28;20272;-61
2021/01/26 05:56:13;;;;;;;;;;;1.80;99.90;;;;;;5037256;28;20339;-63
2021/01/26 05:58:40;;;;;;;;;;;1.80;99.90;;;;;;5036495;28;20394;-63
2021/01/26 06:01:07;;;;;;;;;;;1.90;99.90;;;;;;5037314;28;19971;-61
2021/01/26 06:03:33;;;;;;;;;;;2.00;99.90;;;;;;5036891;28;20413;-61
2021/01/26 06:06:00;;;;;;;;;;;2.00;99.90;;;;;;5037182;28;19921;-61
2021/01/26 06:08:26;;;;;;;;;;;2.00;99.90;;;;;;5036715;28;19920;-62
2021/01/26 06:10:54;;;;;;;;;;;2.00;99.90;;;;;;5036759;28;19921;-62
2021/01/26 06:13:24;;;;;;;;;;;2.10;99.90;;;;;;5037164;28;19921;-61
2021/01/26 06:16:05;;;;;;;;;;;2.10;99.90;;;;;;5036604;28;19928;-60
2021/01/26 06:18:32;;;;;;;;;;;2.10;99.90;;;;;;5036405;28;19925;-62
2021/01/26 06:21:02;;;;;;;;;;;2.20;99.90;;;;;;5035980;28;20015;-59
2021/01/26 06:23:29;;;;;;;;;;;2.20;99.90;;;;;;5036919;28;19921;-61
2021/01/26 06:25:58;;;;;;;;;;;2.20;99.90;;;;;;5036182;28;19925;-62
2021/01/26 06:28:29;;;;;;;;;;;2.20;99.90;;;;;;5036286;28;19955;-60
2021/01/26 06:30:58;;;;;;;;;;;2.10;99.90;;;;;;5036263;28;19921;-60
2021/01/26 06:33:33;;;;;;;;;;;2.20;99.90;;;;;;5036340;28;20257;-61
2021/01/26 06:36:05;;;;;;;;;;;2.10;99.90;;;;;;5036321;28;19921;-61
2021/01/26 06:38:43;;;;;;;;;;;2.20;99.90;;;;;;5036311;28;20368;-61
2021/01/26 06:41:16;;;;;;;;;;;2.20;99.90;;;;;;5036598;28;19921;-62
2021/01/26 06:43:53;;;;;;;;;;;2.20;99.90;;;;;;5036275;28;19921;-62
2021/01/26 06:46:25;;;;;;;;;;;2.20;99.90;;;;;;5036405;28;20354;-62
2021/01/26 06:48:59;;;;;;;;;;;2.30;99.90;;;;;;5036962;28;19921;-61
2021/01/26 06:51:46;;;;;;;;;;;2.30;99.90;;;;;;5036645;28;20252;-61
2021/01/26 06:54:21;;;;;;;;;;;2.30;99.90;;;;;;5002932;28;19928;-60
2021/01/26 06:57:12;;;;;;;;;;;2.20;99.90;;;;;;5035820;28;19921;-61
2021/01/26 06:59:55;;;;;;;;;;;2.10;99.90;;;;;;5037526;28;19925;-60
2021/01/26 07:02:29;;;;;;;;;;;2.10;99.90;;;;;;5035593;28;19920;-60
2021/01/26 07:05:13;;;;;;;;;;;2.10;99.90;;;;;;5036176;28;19925;-60
2021/01/26 07:07:49;;;;;;;;;;;2.10;99.90;;;;;;5022644;28;19921;-60
2021/01/26 07:10:24;;;;;;;;;;;2.10;99.90;;;;;;5036293;28;19921;-60
2021/01/26 07:12:58;;;;;;;;;;;2.10;99.90;;;;;;5050810;28;19921;-60
2021/01/26 07:15:30;;;;;;;;;;;2.10;99.90;;;;;;5039747;28;20016;-61
2021/01/26 07:18:10;;;;;;;;;;;2.10;99.90;;;;;;5037333;28;20383;-60
2021/01/26 07:20:39;;;;;;;;;;;2.10;99.90;;;;;;5036116;28;19921;-59
2021/01/26 07:23:08;;;;;;;;;;;2.10;99.90;;;;;;5036421;28;19959;-61
2021/01/26 07:25:40;;;;;;;;;;;2.20;99.90;;;;;;5035941;28;20055;-59
2021/01/26 07:28:33;;;;;;;;;;;2.20;99.90;;;;;;5035579;28;20375;-59
2021/01/26 07:31:02;;;;;;;;;;;2.20;99.90;;;;;;4989564;28;19921;-60
2021/01/26 07:33:31;;;;;;;;;;;2.30;99.90;;;;;;5038581;28;19921;-60
2021/01/26 07:36:02;;;;;;;;;;;2.30;99.90;;;;;;5038614;28;19927;-59
2021/01/26 07:38:31;;;;;;;;;;;2.40;99.90;;;;;;5039263;28;19925;-60
2021/01/26 07:41:01;;;;;;;;;;;2.40;99.90;;;;;;5039851;28;19956;-59
2021/01/26 07:43:30;;;;;;;;;;;2.50;99.90;;;;;;5038964;28;19928;-60
2021/01/26 07:45:59;;;;;;;;;;;2.50;99.90;;;;;;5041102;28;19929;-60
2021/01/26 07:48:34;;;;;;;;;;;2.60;99.90;;;;;;5040637;28;19932;-59
2021/01/26 07:51:02;;;;;;;;;;;2.70;99.90;;;;;;5038184;28;19920;-61
2021/01/26 07:53:32;;;;;;;;;;;2.80;99.90;;;;;;5036270;28;19956;-61
2021/01/26 07:56:02;;;;;;;;;;;2.80;99.90;;;;;;5039667;28;19964;-61
2021/01/26 07:58:28;;;;;;;;;;;2.70;99.90;;;;;;5037862;28;20348;-61
2021/01/26 08:00:57;;;;;;;;;;;2.60;99.90;;;;;;5041167;28;19971;-61
2021/01/26 08:03:24;;;;;;;;;;;2.50;99.90;;;;;;5036950;28;20283;-61
2021/01/26 08:05:52;;;;;;;;;;;2.40;99.90;;;;;;5040683;28;19971;-62
2021/01/26 08:08:20;;;;;;;;;;;2.30;99.90;;;;;;5038971;28;19920;-62
2021/01/26 08:10:46;;;;;;;;;;;2.20;99.90;;;;;;5039194;28;19932;-61
2021/01/26 08:13:24;;;;;;;;;;;2.30;99.90;;;;;;5041832;28;19932;-61
2021/01/26 08:15:50;;;;;;;;;;;2.20;99.90;;;;;;5040363;28;19932;-61
2021/01/26 08:18:21;;;;;;;;;;;2.30;99.90;;;;;;5039021;28;19925;-60
2021/01/26 08:20:47;;;;;;;;;;;2.30;99.90;;;;;;5039511;28;19921;-61
2021/01/26 08:23:24;;;;;;;;;;;2.30;99.90;;;;;;5041132;28;19928;-60
2021/01/26 08:25:53;;;;;;;;;;;2.30;99.90;;;;;;5038687;28;19928;-61
2021/01/26 08:28:37;;;;;;;;;;;2.30;99.90;;;;;;5040796;28;19921;-61
2021/01/26 08:31:04;;;;;;;;;;;2.30;99.90;;;;;;5040408;28;19921;-61
2021/01/26 08:33:31;;;;;;;;;;;2.30;99.90;;;;;;5040231;28;19921;-61
2021/01/26 08:36:24;;;;;;;;;;;2.40;99.90;;;;;;5039384;28;19928;-61
2021/01/26 08:38:56;;;;;;;;;;;2.60;99.90;;;;;;5040980;28;20345;-61
2021/01/26 08:41:32;;;;;;;;;;;2.60;99.90;;;;;;5042241;28;19928;-61
2021/01/26 08:43:58;;;;;;;;;;;2.50;99.90;;;;;;5040751;28;19921;-61
2021/01/26 08:46:39;;;;;;;;;;;2.60;99.90;;;;;;5044023;28;19921;-61
2021/01/26 08:49:17;;;;;;;;;;;2.50;99.90;;;;;;5043833;28;19927;-61
2021/01/26 08:51:43;;;;;;;;;;;2.50;99.90;;;;;;5039175;28;19924;-61
2021/01/26 08:54:10;;;;;;;;;;;2.50;99.90;;;;;;5039581;28;19921;-61
2021/01/26 08:56:38;;;;;;;;;;;2.50;99.90;;;;;;5039743;28;20402;-62
2021/01/26 08:59:06;;;;;;;;;;;2.40;99.90;;;;;;5041382;28;19944;-61
2021/01/26 09:01:40;;;;;;;;;;;2.50;99.90;;;;;;5040187;28;19921;-61
2021/01/26 09:04:26;;;;;;;;;;;2.50;99.90;;;;;;5042030;28;19932;-62
2021/01/26 09:06:52;;;;;;;;;;;2.50;99.90;;;;;;5039416;28;19928;-61
2021/01/26 09:09:33;;;;;;;;;;;2.50;99.90;;;;;;5039982;28;20410;-61
2021/01/26 09:12:02;;;;;;;;;;;2.50;99.90;;;;;;5038176;28;19921;-61
2021/01/26 09:14:32;;;;;;;;;;;2.50;99.90;;;;;;5038970;28;19936;-61
2021/01/26 09:17:00;;;;;;;;;;;2.60;99.90;;;;;;5040160;28;19921;-62
2021/01/26 09:19:29;;;;;;;;;;;2.70;99.90;;;;;;5053192;28;19917;-62
2021/01/26 09:21:55;;;;;;;;;;;2.90;99.90;;;;;;5060855;28;19912;-61
2021/01/26 09:24:22;;;;;;;;;;;3.20;99.90;;;;;;5061434;28;19924;-61
2021/01/26 09:26:48;;;;;;;;;;;3.30;99.90;;;;;;5061546;28;19909;-63
2021/01/26 09:29:22;;;;;;;;;;;3.50;99.90;;;;;;5052103;28;19921;-62
2021/01/26 09:31:48;;;;;;;;;;;3.70;99.90;;;;;;5040595;28;19983;-61
2021/01/26 09:34:14;;;;;;;;;;;3.70;99.90;;;;;;5042306;28;19928;-62
2021/01/26 09:36:40;;;;;;;;;;;3.70;99.90;;;;;;5041943;28;20263;-62
2021/01/26 09:39:08;;;;;;;;;;;3.90;99.90;;;;;;5041018;28;19925;-61
2021/01/26 09:41:35;;;;;;;;;;;3.90;99.90;;;;;;5042442;28;19921;-62
2021/01/26 09:44:05;;;;;;;;;;;3.90;99.90;;;;;;5038974;28;19921;-61
2021/01/26 09:46:33;;;;;;;;;;;3.80;99.90;;;;;;5042707;28;19921;-61
2021/01/26 09:49:08;;;;;;;;;;;3.90;99.90;;;;;;5042649;28;19924;-61
2021/01/26 09:51:38;;;;;;;;;;;3.90;99.90;;;;;;5038552;28;19928;-61
2021/01/26 09:54:06;;;;;;;;;;;3.70;99.90;;;;;;5038977;28;20438;-61
2021/01/26 09:56:33;;;;;;;;;;;3.70;99.90;;;;;;5038410;28;19921;-61
2021/01/26 09:58:59;;;;;;;;;;;3.50;99.90;;;;;;5039424;28;20311;-61
2021/01/26 10:01:26;;;;;;;;;;;3.60;99.90;;;;;;5040395;28;19924;-61
2021/01/26 10:03:57;;;;;;;;;;;3.70;99.90;;;;;;5039208;28;19921;-62
2021/01/26 10:06:24;;;;;;;;;;;3.90;99.90;;;;;;5039325;28;19936;-61
2021/01/26 10:08:50;;;;;;;;;;;3.90;99.90;;;;;;5040486;28;19921;-61
2021/01/26 10:11:18;;;;;;;;;;;4.10;99.90;;;;;;5039302;28;20261;-61
2021/01/26 10:13:45;;;;;;;;;;;4.00;99.90;;;;;;5038816;28;19936;-61
2021/01/26 10:16:25;;;;;;;;;;;4.20;99.90;;;;;;5048811;28;19932;-62
2021/01/26 10:18:51;;;;;;;;;;;4.30;99.90;;;;;;5058668;28;19921;-61
2021/01/26 10:21:25;;;;;;;;;;;4.60;99.90;;;;;;5059744;28;19905;-63
2021/01/26 10:23:58;;;;;;;;;;;4.80;99.90;;;;;;5059384;28;19905;-62
2021/01/26 10:26:25;;;;;;;;;;;4.90;99.90;;;;;;5058745;28;19925;-62
2021/01/26 10:29:10;;;;;;;;;;;5.00;99.90;;;;;;5052486;28;19921;-62
2021/01/26 10:31:40;;;;;;;;;;;5.00;99.90;;;;;;5031303;28;19921;-62
2021/01/26 10:34:16;;;;;;;;;;;5.00;99.90;;;;;;5045274;28;20002;-62
2021/01/26 10:36:43;;;;;;;;;;;4.90;99.90;;;;;;5046083;28;19932;-61
2021/01/26 10:39:21;;;;;;;;;;;4.80;99.90;;;;;;5044359;28;19928;-60
2021/01/26 10:41:47;;;;;;;;;;;4.70;99.90;;;;;;5042724;28;19928;-61
2021/01/26 10:44:15;;;;;;;;;;;4.60;99.90;;;;;;5039218;28;19944;-62
2021/01/26 10:46:41;;;;;;;;;;;4.60;99.90;;;;;;5044610;28;19928;-62
2021/01/26 10:49:08;;;;;;;;;;;4.50;99.90;;;;;;5040503;28;19987;-62
2021/01/26 10:51:36;;;;;;;;;;;4.40;99.90;;;;;;5038807;28;19921;-62
2021/01/26 10:54:05;;;;;;;;;;;4.20;99.90;;;;;;5040425;28;19928;-62
2021/01/26 10:56:31;;;;;;;;;;;4.30;99.90;;;;;;5038472;28;19921;-63
2021/01/26 10:58:57;;;;;;;;;;;4.20;99.90;;;;;;5039473;28;20387;-61
2021/01/26 11:01:23;;;;;;;;;;;4.10;99.90;;;;;;5039339;28;20368;-62
2021/01/26 11:03:50;;;;;;;;;;;4.40;99.90;;;;;;5038582;28;19924;-62
2021/01/26 11:06:17;;;;;;;;;;;4.50;99.90;;;;;;5036688;28;19925;-62
2021/01/26 11:08:43;;;;;;;;;;;4.40;99.90;;;;;;5036927;28;20284;-61
2021/01/26 11:11:11;;;;;;;;;;;4.30;99.90;;;;;;5035349;28;19921;-62
2021/01/26 11:13:37;;;;;;;;;;;4.10;99.90;;;;;;5036630;28;20330;-63
2021/01/26 11:16:04;;;;;;;;;;;4.00;99.90;;;;;;5036728;28;19982;-63
2021/01/26 11:18:30;;;;;;;;;;;3.90;99.90;;;;;;5036748;28;19921;-62
2021/01/26 11:20:57;;;;;;;;;;;3.90;99.90;;;;;;5036443;28;19920;-61
2021/01/26 11:23:23;;;;;;;;;;;3.80;99.90;;;;;;5038187;28;19928;-62
2021/01/26 11:25:49;;;;;;;;;;;3.90;99.90;;;;;;5041088;28;19921;-62
2021/01/26 11:28:16;;;;;;;;;;;3.90;99.90;;;;;;5036407;28;19979;-61
2021/01/26 11:30:42;;;;;;;;;;;3.90;99.90;;;;;;5035496;28;20303;-61
2021/01/26 11:33:08;;;;;;;;;;;4.10;99.90;;;;;;5035442;28;19921;-62
2021/01/26 11:35:34;;;;;;;;;;;4.20;99.90;;;;;;5036022;28;19927;-62
2021/01/26 11:38:01;;;;;;;;;;;4.30;99.90;;;;;;5036901;28;19921;-61
2021/01/26 11:40:27;;;;;;;;;;;4.50;99.90;;;;;;5035812;28;19921;-61
2021/01/26 11:42:53;;;;;;;;;;;4.40;99.90;;;;;;5035852;28;19921;-62
2021/01/26 11:45:21;;;;;;;;;;;4.30;99.90;;;;;;5035253;28;19925;-62
2021/01/26 11:47:47;;;;;;;;;;;4.20;99.90;;;;;;5035497;28;19967;-61
2021/01/26 11:50:14;;;;;;;;;;;4.30;99.90;;;;;;5035075;28;20280;-62
2021/01/26 11:52:40;;;;;;;;;;;4.40;99.90;;;;;;5034835;28;19921;-61
2021/01/26 11:55:08;;;;;;;;;;;4.40;99.90;;;;;;5035095;28;19924;-61
2021/01/26 11:57:34;;;;;;;;;;;4.60;99.90;;;;;;5034851;28;19998;-61
2021/01/26 12:00:00;;;;;;;;;;;4.50;99.90;;;;;;5035596;28;19928;-61
2021/01/26 12:02:27;;;;;;;;;;;4.70;99.90;;;;;;5034907;28;19956;-61
2021/01/26 12:04:53;;;;;;;;;;;4.80;99.90;;;;;;5035744;28;19921;-63
2021/01/26 12:07:20;;;;;;;;;;;5.40;99.90;;;;;;5035014;28;19921;-62
2021/01/26 12:09:46;;;;;;;;;;;5.90;99.90;;;;;;5036670;28;19924;-61
2021/01/26 12:12:14;;;;;;;;;;;6.20;99.90;;;;;;5036398;28;19925;-62
2021/01/26 12:14:40;;;;;;;;;;;6.10;99.90;;;;;;5035517;28;20307;-61
2021/01/26 12:17:06;;;;;;;;;;;6.00;99.90;;;;;;5034865;28;19929;-61
2021/01/26 12:19:33;;;;;;;;;;;5.80;99.90;;;;;;5035573;28;19921;-63
2021/01/26 12:22:00;;;;;;;;;;;5.50;99.90;;;;;;5038708;28;19921;-63
2021/01/26 12:24:26;;;;;;;;;;;5.50;99.90;;;;;;5036036;28;19925;-61
2021/01/26 12:26:53;;;;;;;;;;;5.50;99.90;;;;;;5035107;28;19921;-61
2021/01/26 12:29:19;;;;;;;;;;;5.50;99.90;;;;;;5034616;28;19921;-61
2021/01/26 12:31:45;;;;;;;;;;;5.50;99.90;;;;;;5034825;28;19921;-62
2021/01/26 12:34:11;;;;;;;;;;;5.70;99.90;;;;;;5034867;28;19969;-62
2021/01/26 12:36:38;;;;;;;;;;;5.90;99.90;;;;;;5034813;28;19928;-62
2021/01/26 12:39:04;;;;;;;;;;;6.00;99.90;;;;;;5034707;28;19921;-63
2021/01/26 12:41:30;;;;;;;;;;;6.00;99.90;;;;;;5034638;28;19921;-63
2021/01/26 12:43:57;;;;;;;;;;;6.00;99.90;;;;;;5034863;28;19925;-63
2021/01/26 12:46:23;;;;;;;;;;;5.90;99.90;;;;;;5034449;28;19921;-63
2021/01/26 12:48:49;;;;;;;;;;;5.70;99.90;;;;;;5034486;28;20329;-63
2021/01/26 12:51:15;;;;;;;;;;;5.80;99.90;;;;;;5034636;28;19921;-63
2021/01/26 12:53:42;;;;;;;;;;;6.00;99.90;;;;;;5034622;28;19921;-63
2021/01/26 12:56:08;;;;;;;;;;;6.00;99.90;;;;;;5034391;28;19921;-63
2021/01/26 12:58:34;;;;;;;;;;;6.20;99.90;;;;;;5034347;28;19921;-63
2021/01/26 13:01:00;;;;;;;;;;;6.40;99.90;;;;;;5034253;28;19921;-62
2021/01/26 13:03:26;;;;;;;;;;;6.40;99.90;;;;;;5034740;28;20376;-61
2021/01/26 13:05:52;;;;;;;;;;;6.40;99.90;;;;;;5034497;28;19925;-63
2021/01/26 13:08:18;;;;;;;;;;;6.20;99.90;;;;;;5037929;28;19921;-62
2021/01/26 13:10:45;;;;;;;;;;;6.10;99.90;;;;;;5038065;28;19928;-63
2021/01/26 13:13:11;;;;;;;;;;;6.00;99.90;;;;;;5041333;28;19921;-63
2021/01/26 13:15:37;;;;;;;;;;;5.90;99.90;;;;;;5040914;28;19921;-62
2021/01/26 13:18:03;;;;;;;;;;;5.80;99.90;;;;;;5039260;28;19921;-63
2021/01/26 13:20:29;;;;;;;;;;;5.60;99.90;;;;;;5039098;28;19971;-62
2021/01/26 13:22:55;;;;;;;;;;;5.60;99.90;;;;;;5038939;28;19971;-63
2021/01/26 13:25:23;;;;;;;;;;;5.70;99.90;;;;;;5038822;28;19928;-63
2021/01/26 13:27:50;;;;;;;;;;;5.60;99.90;;;;;;5038828;28;20003;-61
2021/01/26 13:30:18;;;;;;;;;;;5.40;99.90;;;;;;5038071;28;20327;-63
2021/01/26 13:32:44;;;;;;;;;;;5.30;99.90;;;;;;5037750;28;19920;-63
2021/01/26 13:35:14;;;;;;;;;;;5.30;99.90;;;;;;5037908;28;19928;-61
2021/01/26 13:37:40;;;;;;;;;;;5.30;99.90;;;;;;5037975;28;19921;-62
2021/01/26 13:40:07;;;;;;;;;;;5.20;99.90;;;;;;5037301;28;20376;-62
2021/01/26 13:42:33;;;;;;;;;;;5.00;99.90;;;;;;5037463;28;19971;-62
2021/01/26 13:44:59;;;;;;;;;;;5.00;99.90;;;;;;5037551;28;19928;-62
2021/01/26 13:47:25;;;;;;;;;;;5.10;99.90;;;;;;5037171;28;19921;-62
2021/01/26 13:49:52;;;;;;;;;;;5.10;99.90;;;;;;5037348;28;20355;-63
2021/01/26 13:52:20;;;;;;;;;;;5.10;99.90;;;;;;5037005;28;19921;-63
2021/01/26 13:54:46;;;;;;;;;;;5.10;99.90;;;;;;5038737;28;19921;-63
2021/01/26 13:57:12;;;;;;;;;;;5.00;99.90;;;;;;5037202;28;19928;-63
2021/01/26 13:59:38;;;;;;;;;;;5.10;99.90;;;;;;5037664;28;19968;-63
2021/01/26 14:02:05;;;;;;;;;;;5.10;99.90;;;;;;5037070;28;19975;-63
2021/01/26 14:04:31;;;;;;;;;;;5.00;99.90;;;;;;5037412;28;19925;-63
2021/01/26 14:06:57;;;;;;;;;;;5.00;99.90;;;;;;5037430;28;19925;-63
2021/01/26 14:09:23;;;;;;;;;;;5.00;99.90;;;;;;5038407;28;20016;-62
2021/01/26 14:11:51;;;;;;;;;;;5.00;99.90;;;;;;5037919;28;19921;-62
2021/01/26 14:14:17;;;;;;;;;;;5.00;99.90;;;;;;5037435;28;19925;-62
2021/01/26 14:16:43;;;;;;;;;;;5.00;99.90;;;;;;5036796;28;19928;-63
2021/01/26 14:19:10;;;;;;;;;;;5.00;99.90;;;;;;5036357;28;20364;-63
2021/01/26 14:21:36;;;;;;;;;;;4.80;99.90;;;;;;5038951;28;19925;-62
2021/01/26 14:24:02;;;;;;;;;;;4.80;99.90;;;;;;5037472;28;19921;-64
2021/01/26 14:26:28;;;;;;;;;;;4.70;99.90;;;;;;5042371;28;19921;-62
2021/01/26 14:28:54;;;;;;;;;;;4.70;99.90;;;;;;5052934;28;20338;-63
2021/01/26 14:31:20;;;;;;;;;;;4.70;99.90;;;;;;5046355;28;19971;-63
2021/01/26 14:33:47;;;;;;;;;;;4.70;99.90;;;;;;5045338;28;19932;-63
2021/01/26 14:36:14;;;;;;;;;;;4.70;99.90;;;;;;5042385;28;19921;-63
2021/01/26 14:38:41;;;;;;;;;;;4.60;99.90;;;;;;5042464;28;21400;-63
2021/01/26 14:41:07;;;;;;;;;;;4.50;99.90;;;;;;5042084;28;20387;-63
2021/01/26 14:43:33;;;;;;;;;;;4.60;99.90;;;;;;5037418;28;19971;-63
2021/01/26 14:46:00;;;;;;;;;;;4.40;99.90;;;;;;5037710;28;19932;-63
2021/01/26 14:48:26;;;;;;;;;;;4.50;99.90;;;;;;5037899;28;19925;-62
2021/01/26 14:50:52;;;;;;;;;;;4.50;99.90;;;;;;5038024;28;19925;-63
2021/01/26 14:53:19;;;;;;;;;;;4.60;99.90;;;;;;5038763;28;19925;-64
2021/01/26 14:55:45;;;;;;;;;;;4.60;99.90;;;;;;5037230;28;19979;-63
2021/01/26 14:58:12;;;;;;;;;;;4.50;99.90;;;;;;5038134;28;19925;-61
2021/01/26 15:00:38;;;;;;;;;;;4.40;99.90;;;;;;5037202;28;19925;-62
2021/01/26 15:03:04;;;;;;;;;;;4.40;99.90;;;;;;5035975;28;19975;-63
2021/01/26 15:05:30;;;;;;;;;;;4.40;99.90;;;;;;5046858;28;19971;-63
2021/01/26 15:07:56;;;;;;;;;;;4.40;99.90;;;;;;5047870;28;19989;-62
2021/01/26 15:10:24;;;;;;;;;;;4.50;99.90;;;;;;5038622;28;19932;-63
2021/01/26 15:12:50;;;;;;;;;;;4.60;99.90;;;;;;5038370;28;19925;-62
2021/01/26 15:15:17;;;;;;;;;;;4.60;99.90;;;;;;5036147;28;20450;-62
2021/01/26 15:17:43;;;;;;;;;;;4.60;99.90;;;;;;5036914;28;19948;-63
2021/01/26 15:20:10;;;;;;;;;;;4.50;99.90;;;;;;5037460;28;19925;-63
2021/01/26 15:22:37;;;;;;;;;;;4.50;99.90;;;;;;5036608;28;19932;-62
2021/01/26 15:25:03;;;;;;;;;;;4.50;99.90;;;;;;5038666;28;19933;-63
2021/01/26 15:27:30;;;;;;;;;;;4.50;99.90;;;;;;5059488;28;19909;-63
2021/01/26 15:29:56;;;;;;;;;;;4.40;99.90;;;;;;5059464;28;19928;-62
2021/01/26 15:32:22;;;;;;;;;;;4.40;99.90;;;;;;5059336;28;19909;-64
2021/01/26 15:34:48;;;;;;;;;;;4.30;99.90;;;;;;5059514;28;19909;-62
2021/01/26 15:37:18;;;;;;;;;;;4.20;99.90;;;;;;5042388;28;19932;-63
2021/01/26 15:39:45;;;;;;;;;;;4.10;99.90;;;;;;5036907;28;20369;-63
2021/01/26 15:42:11;;;;;;;;;;;4.10;99.90;;;;;;5036083;28;19925;-62
2021/01/26 15:44:37;;;;;;;;;;;4.00;99.90;;;;;;5039261;28;19936;-63
2021/01/26 15:47:03;;;;;;;;;;;3.90;99.90;;;;;;5047631;28;19925;-62
2021/01/26 15:49:33;;;;;;;;;;;4.00;99.90;;;;;;5044512;28;19925;-63
2021/01/26 15:51:59;;;;;;;;;;;3.90;99.90;;;;;;5036763;28;19925;-63
2021/01/26 15:54:25;;;;;;;;;;;3.90;99.90;;;;;;5035662;28;20336;-62
2021/01/26 15:56:51;;;;;;;;;;;3.80;99.90;;;;;;5035615;28;19947;-64
2021/01/26 15:59:17;;;;;;;;;;;3.70;99.90;;;;;;5035302;28;20050;-63
2021/01/26 16:01:44;;;;;;;;;;;3.70;99.90;;;;;;5035110;28;19932;-63
2021/01/26 16:04:10;;;;;;;;;;;3.70;99.90;;;;;;5038359;28;19925;-63
2021/01/26 16:06:36;;;;;;;;;;;3.70;99.90;;;;;;5044658;28;19931;-63
2021/01/26 16:09:02;;;;;;;;;;;3.60;99.90;;;;;;5038355;28;19925;-63
2021/01/26 16:11:28;;;;;;;;;;;3.60;99.90;;;;;;5041705;28;19925;-63
2021/01/26 16:13:54;;;;;;;;;;;3.50;99.90;;;;;;5046821;28;19933;-63
2021/01/26 16:16:20;;;;;;;;;;;3.50;99.90;;;;;;5039219;28;19995;-62
2021/01/26 16:18:47;;;;;;;;;;;3.60;99.90;;;;;;5036677;28;19929;-64
2021/01/26 16:21:13;;;;;;;;;;;3.60;99.90;;;;;;5039551;28;19933;-63
2021/01/26 16:23:39;;;;;;;;;;;3.60;99.90;;;;;;5043156;28;19925;-63
2021/01/26 16:26:06;;;;;;;;;;;3.60;99.90;;;;;;5036892;28;20064;-63
2021/01/26 16:28:32;;;;;;;;;;;3.60;99.90;;;;;;5034838;28;19925;-63
2021/01/26 16:30:58;;;;;;;;;;;3.60;99.90;;;;;;5035345;28;19925;-63
2021/01/26 16:33:24;;;;;;;;;;;3.60;99.90;;;;;;5035643;28;19947;-63
2021/01/26 16:35:54;;;;;;;;;;;3.60;99.90;;;;;;5034461;28;19974;-64
2021/01/26 16:38:20;;;;;;;;;;;3.50;99.90;;;;;;5034480;28;20011;-64
2021/01/26 16:40:50;;;;;;;;;;;3.50;99.90;;;;;;5038801;28;19916;-62
2021/01/26 16:43:16;;;;;;;;;;;3.50;99.90;;;;;;5047568;28;19929;-62
2021/01/26 16:45:42;;;;;;;;;;;3.50;99.90;;;;;;5039516;28;19932;-62
2021/01/26 16:48:09;;;;;;;;;;;3.50;99.90;;;;;;5039066;28;19925;-63
2021/01/26 16:50:35;;;;;;;;;;;3.40;99.90;;;;;;5038878;28;19979;-64
2021/01/26 16:53:03;;;;;;;;;;;3.40;99.90;;;;;;5038953;28;20030;-63
2021/01/26 16:55:29;;;;;;;;;;;3.40;99.90;;;;;;5042890;28;19931;-63
2021/01/26 16:57:55;;;;;;;;;;;3.40;99.90;;;;;;5039228;28;19975;-62
2021/01/26 17:00:23;;;;;;;;;;;3.40;99.90;;;;;;5041744;28;20380;-60
2021/01/26 17:02:49;;;;;;;;;;;3.40;99.90;;;;;;5039833;28;19932;-63
2021/01/26 17:05:15;;;;;;;;;;;3.40;99.90;;;;;;5040529;28;20016;-61
2021/01/26 17:07:41;;;;;;;;;;;3.40;99.90;;;;;;5055044;28;19925;-61
2021/01/26 17:10:08;;;;;;;;;;;3.40;99.90;;;;;;5059108;28;20020;-62
2021/01/26 17:12:34;;;;;;;;;;;3.40;99.90;;;;;;5059140;28;19925;-62
2021/01/26 17:15:00;;;;;;;;;;;3.40;99.90;;;;;;5059320;28;19925;-62
2021/01/26 17:17:28;;;;;;;;;;;3.40;99.90;;;;;;5060373;28;19952;-62
2021/01/26 17:19:55;;;;;;;;;;;3.40;99.90;;;;;;5060000;28;19931;-62
2021/01/26 17:22:22;;;;;;;;;;;3.50;99.90;;;;;;5059512;28;19941;-63
2021/01/26 17:24:48;;;;;;;;;;;3.40;99.90;;;;;;5060036;28;20024;-63
2021/01/26 17:27:16;;;;;;;;;;;3.50;99.90;;;;;;5060714;28;19932;-63
2021/01/26 17:29:42;;;;;;;;;;;3.50;99.90;;;;;;5061029;28;19916;-62
2021/01/26 17:32:08;;;;;;;;;;;3.40;99.90;;;;;;5061402;28;19910;-62
2021/01/26 17:34:35;;;;;;;;;;;3.40;99.90;;;;;;5061518;28;19909;-63
2021/01/26 17:37:01;;;;;;;;;;;3.30;99.90;;;;;;5061601;28;19909;-62
2021/01/26 17:39:27;;;;;;;;;;;3.20;99.90;;;;;;5061164;28;19917;-61
2021/01/26 17:41:53;;;;;;;;;;;3.20;99.90;;;;;;5059617;28;19925;-62
2021/01/26 17:44:22;;;;;;;;;;;3.10;99.90;;;;;;5060868;28;19932;-63
2021/01/26 17:46:48;;;;;;;;;;;3.10;99.90;;;;;;5060609;28;20214;-63
2021/01/26 17:49:15;;;;;;;;;;;3.10;99.90;;;;;;5060936;28;19916;-63
2021/01/26 17:51:41;;;;;;;;;;;3.10;99.90;;;;;;5061052;28;19925;-63
2021/01/26 17:54:10;;;;;;;;;;;3.10;99.90;;;;;;5057781;28;19929;-64
2021/01/26 17:56:36;;;;;;;;;;;3.20;99.90;;;;;;5050709;28;20389;-63
2021/01/26 17:59:02;;;;;;;;;;;3.10;99.90;;;;;;5051169;28;19979;-64
2021/01/26 18:01:29;;;;;;;;;;;3.10;99.90;;;;;;5053714;28;19925;-63
2021/01/26 18:03:55;;;;;;;;;;;3.20;99.90;;;;;;5054054;28;19932;-65
2021/01/26 18:06:21;;;;;;;;;;;3.20;99.90;;;;;;5053557;28;19914;-64
2021/01/26 18:08:47;;;;;;;;;;;3.20;99.90;;;;;;5056114;28;19929;-63
2021/01/26 18:11:14;;;;;;;;;;;3.20;99.90;;;;;;5052675;28;19931;-64
2021/01/26 18:13:40;;;;;;;;;;;3.30;99.90;;;;;;5048666;28;19978;-64
2021/01/26 18:16:06;;;;;;;;;;;3.30;99.90;;;;;;5051061;28;19932;-63
2021/01/26 18:18:33;;;;;;;;;;;3.40;99.90;;;;;;5048247;28;19925;-64
2021/01/26 18:21:00;;;;;;;;;;;3.40;99.90;;;;;;5048796;28;19929;-64
2021/01/26 18:23:26;;;;;;;;;;;3.50;99.90;;;;;;5050804;28;19924;-62
2021/01/26 18:25:52;;;;;;;;;;;3.50;99.90;;;;;;5047402;28;19964;-64
2021/01/26 18:28:18;;;;;;;;;;;3.50;99.90;;;;;;5041739;28;19933;-63
2021/01/26 18:30:45;;;;;;;;;;;3.50;99.90;;;;;;5041688;28;19932;-63
2021/01/26 18:33:11;;;;;;;;;;;3.50;99.90;;;;;;5041699;28;19968;-64
2021/01/26 18:35:39;;;;;;;;;;;3.40;99.90;;;;;;5041994;28;19929;-63
2021/01/26 18:38:06;;;;;;;;;;;3.40;99.90;;;;;;5041242;28;19925;-64
2021/01/26 18:40:32;;;;;;;;;;;3.40;99.90;;;;;;5041855;28;19932;-63
2021/01/26 18:42:59;;;;;;;;;;;3.40;99.90;;;;;;5043618;28;19980;-62
2021/01/26 18:45:26;;;;;;;;;;;3.40;99.90;;;;;;5042330;28;19948;-62
2021/01/26 18:47:52;;;;;;;;;;;3.40;99.90;;;;;;5041971;28;19932;-63
2021/01/26 18:50:20;;;;;;;;;;;3.40;99.90;;;;;;5040930;28;19928;-64
2021/01/26 18:52:47;;;;;;;;;;;3.40;99.90;;;;;;5041613;28;19931;-63
2021/01/26 18:55:13;;;;;;;;;;;3.40;99.90;;;;;;5041231;28;19931;-63
2021/01/26 18:57:39;;;;;;;;;;;3.40;99.90;;;;;;5041087;28;20036;-63
2021/01/26 19:00:07;;;;;;;;;;;3.40;99.90;;;;;;5039145;28;19933;-64
2021/01/26 19:02:33;;;;;;;;;;;3.60;99.90;;;;;;5039275;28;19925;-64
2021/01/26 19:04:59;;;;;;;;;;;3.60;99.90;;;;;;5039506;28;19948;-64
2021/01/26 19:07:25;;;;;;;;;;;3.60;99.90;;;;;;5038917;28;20354;-62
2021/01/26 19:09:51;;;;;;;;;;;3.70;99.90;;;;;;5040093;28;19925;-69
2021/01/26 19:12:18;;;;;;;;;;;3.60;99.90;;;;;;5038911;28;19929;-64
2021/01/26 19:14:44;;;;;;;;;;;3.60;99.90;;;;;;5038037;28;19925;-64
2021/01/26 19:17:10;;;;;;;;;;;3.60;99.90;;;;;;5038949;28;19925;-63
2021/01/26 19:19:36;;;;;;;;;;;3.60;99.90;;;;;;5038264;28;19925;-63
2021/01/26 19:22:02;;;;;;;;;;;3.60;99.90;;;;;;5047789;28;19925;-63
2021/01/26 19:24:28;;;;;;;;;;;3.60;99.90;;;;;;5048511;28;19925;-63
2021/01/26 19:26:55;;;;;;;;;;;3.60;99.90;;;;;;5050805;28;19936;-63
2021/01/26 19:29:21;;;;;;;;;;;3.70;99.90;;;;;;5048512;28;19936;-63
2021/01/26 19:31:47;;;;;;;;;;;3.70;99.90;;;;;;5050893;28;19929;-63
2021/01/26 19:34:14;;;;;;;;;;;3.70;99.90;;;;;;5048858;28;19951;-63
2021/01/26 19:36:42;;;;;;;;;;;3.70;99.90;;;;;;5050200;28;19972;-63